PWSweather.com
Personal Weather Stations
Station Observations
WATERF01
WaterfordIE

WaterfordIE

Lat: 52.2412507, Lon: -7.1414691

Elevation: 65

Station Type: Davis Vantage Vue

www.waterfordweather.com

High Low Average
Temperature 56.3°F13.5°F 42.2°F5.7°F 50.6°F10.3°F
Dew Point 53.4°F11.9°F 37.7°F3.2°F 45.9°F7.7°F
Winds 23.0 mph SSE37.0 mph SSE Calm Calm 9.2 mph 14.8 mph
Wind Gusts 33.4 mph53.8 mph -- 14.1 mph22.7 mph
Humidity 90% 72% 84%
Pressure 29.71 in1006.10 in 29.20 in988.80 in -
Precipitation 0.63 in16.00 in - -
Hour Temp Dew Point Humidity Winds Wind Gusts Pressure Precip Precip Rate Daily Precip Total
12:00 AM 50.3°F10.2°C 44.7°F7.1°C 81% 10.4 mph NW16.7 kmh NW 16.1 mph25.9 kmh 29.50 in999.0 mb - 0.00 in0.0 mm 0.00 in0.0 mm
12:10 AM 50.1°F10.1°C 44.2°F6.8°C 80% 10.4 mph NW16.7 kmh NW 15.0 mph24.1 kmh 29.50 in999.0 mb - 0.00 in0.0 mm 0.00 in0.0 mm
12:20 AM 49.8°F9.9°C 43.9°F6.6°C 80% 12.7 mph NW20.4 kmh NW 16.1 mph25.9 kmh 29.51 in999.3 mb - 0.00 in0.0 mm 0.00 in0.0 mm
12:30 AM 49.7°F9.8°C 43.8°F6.6°C 80% 11.5 mph NW18.5 kmh NW 15.0 mph24.1 kmh 29.52 in999.7 mb - 0.00 in0.0 mm 0.00 in0.0 mm
12:40 AM 49.5°F9.7°C 43.3°F6.3°C 79% 8.1 mph WNW13.0 kmh WNW 13.8 mph22.2 kmh 29.52 in999.7 mb - 0.00 in0.0 mm 0.00 in0.0 mm
12:50 AM 49.2°F9.6°C 43.3°F6.3°C 80% 3.5 mph WNW5.6 kmh WNW 6.9 mph11.1 kmh 29.53 in1000.0 mb - 0.00 in0.0 mm 0.00 in0.0 mm
01:00 AM 48.9°F9.4°C 43.6°F6.4°C 82% 6.9 mph NW11.1 kmh NW 16.1 mph25.9 kmh 29.54 in1000.3 mb - 0.00 in0.0 mm 0.00 in0.0 mm
01:10 AM 48.5°F9.2°C 43.3°F6.3°C 82% 8.1 mph WNW13.0 kmh WNW 12.7 mph20.4 kmh 29.54 in1000.3 mb - 0.00 in0.0 mm 0.00 in0.0 mm
01:20 AM 48.4°F9.1°C 43.2°F6.2°C 82% 9.2 mph NW14.8 kmh NW 16.1 mph25.9 kmh 29.55 in1000.7 mb - 0.00 in0.0 mm 0.00 in0.0 mm
01:30 AM 48.3°F9.1°C 42.7°F5.9°C 81% 5.8 mph W9.3 kmh W 9.2 mph14.8 kmh 29.56 in1001.0 mb - 0.00 in0.0 mm 0.00 in0.0 mm
01:40 AM 48.1°F8.9°C 42.5°F5.8°C 81% 8.1 mph NW13.0 kmh NW 11.5 mph18.5 kmh 29.57 in1001.4 mb - 0.00 in0.0 mm 0.00 in0.0 mm
01:50 AM 47.8°F8.8°C 42.6°F5.9°C 82% 9.2 mph WNW14.8 kmh WNW 12.7 mph20.4 kmh 29.57 in1001.4 mb - 0.00 in0.0 mm 0.00 in0.0 mm
02:00 AM 47.6°F8.7°C 42.4°F5.8°C 82% 6.9 mph NW11.1 kmh NW 13.8 mph22.2 kmh 29.58 in1001.7 mb - 0.00 in0.0 mm 0.00 in0.0 mm
02:10 AM 47.7°F8.7°C 42.1°F5.6°C 81% 8.1 mph NW13.0 kmh NW 13.8 mph22.2 kmh 29.59 in1002.0 mb - 0.00 in0.0 mm 0.00 in0.0 mm
02:20 AM 47.8°F8.8°C 42.3°F5.7°C 81% 8.1 mph WNW13.0 kmh WNW 11.5 mph18.5 kmh 29.60 in1002.4 mb - 0.00 in0.0 mm 0.00 in0.0 mm
02:30 AM 47.9°F8.8°C 42.0°F5.6°C 80% 4.6 mph NW7.4 kmh NW 5.8 mph9.3 kmh 29.61 in1002.7 mb - 0.00 in0.0 mm 0.00 in0.0 mm
02:40 AM 47.7°F8.7°C 41.8°F5.4°C 80% 2.3 mph WNW3.7 kmh WNW 5.8 mph9.3 kmh 29.61 in1002.7 mb - 0.00 in0.0 mm 0.00 in0.0 mm
02:50 AM 47.6°F8.7°C 41.7°F5.4°C 80% Calm Calm -- 29.61 in1002.7 mb - 0.00 in0.0 mm 0.00 in0.0 mm
03:00 AM 47.5°F8.6°C 41.6°F5.3°C 80% 1.2 mph N1.9 kmh N 4.6 mph7.4 kmh 29.62 in1003.0 mb - 0.00 in0.0 mm 0.00 in0.0 mm
03:10 AM 47.4°F8.6°C 41.5°F5.3°C 80% 2.3 mph NNW3.7 kmh NNW 5.8 mph9.3 kmh 29.62 in1003.0 mb - 0.00 in0.0 mm 0.00 in0.0 mm
03:20 AM 47.3°F8.5°C 41.4°F5.2°C 80% 3.5 mph NW5.6 kmh NW 8.1 mph13.0 kmh 29.62 in1003.0 mb - 0.00 in0.0 mm 0.00 in0.0 mm
03:30 AM 47.1°F8.4°C 41.2°F5.1°C 80% 6.9 mph NW11.1 kmh NW 11.5 mph18.5 kmh 29.62 in1003.0 mb - 0.00 in0.0 mm 0.00 in0.0 mm
03:40 AM 47.0°F8.3°C 41.5°F5.3°C 81% 6.9 mph NW11.1 kmh NW 12.7 mph20.4 kmh 29.62 in1003.0 mb - 0.00 in0.0 mm 0.00 in0.0 mm
03:50 AM 47.0°F8.3°C 41.5°F5.3°C 81% 4.6 mph NW7.4 kmh NW 8.1 mph13.0 kmh 29.63 in1003.4 mb - 0.00 in0.0 mm 0.00 in0.0 mm
04:00 AM 47.1°F8.4°C 41.6°F5.3°C 81% 3.5 mph NW5.6 kmh NW 5.8 mph9.3 kmh 29.63 in1003.4 mb - 0.00 in0.0 mm 0.00 in0.0 mm
04:10 AM 46.7°F8.2°C 41.2°F5.1°C 81% 2.3 mph W3.7 kmh W 5.8 mph9.3 kmh 29.64 in1003.7 mb - 0.00 in0.0 mm 0.00 in0.0 mm
04:20 AM 46.5°F8.1°C 41.0°F5.0°C 81% 3.5 mph NW5.6 kmh NW 5.8 mph9.3 kmh 29.64 in1003.7 mb - 0.00 in0.0 mm 0.00 in0.0 mm
04:30 AM 46.2°F7.9°C 41.0°F5.0°C 82% 2.3 mph WSW3.7 kmh WSW 5.8 mph9.3 kmh 29.65 in1004.1 mb - 0.00 in0.0 mm 0.00 in0.0 mm
04:40 AM 45.5°F7.5°C 40.7°F4.8°C 83% 2.3 mph NW3.7 kmh NW 4.6 mph7.4 kmh 29.65 in1004.1 mb - 0.00 in0.0 mm 0.00 in0.0 mm
04:50 AM 45.7°F7.6°C 40.8°F4.9°C 83% 3.5 mph WNW5.6 kmh WNW 6.9 mph11.1 kmh 29.65 in1004.1 mb - 0.00 in0.0 mm 0.00 in0.0 mm
05:00 AM 46.0°F7.8°C 40.8°F4.9°C 82% 2.3 mph NW3.7 kmh NW 5.8 mph9.3 kmh 29.65 in1004.1 mb - 0.00 in0.0 mm 0.00 in0.0 mm
05:10 AM 45.8°F7.7°C 40.6°F4.8°C 82% 2.3 mph WNW3.7 kmh WNW 2.3 mph3.7 kmh 29.65 in1004.1 mb - 0.00 in0.0 mm 0.00 in0.0 mm
05:20 AM 45.5°F7.5°C 40.3°F4.6°C 82% 1.2 mph SSW1.9 kmh SSW 2.3 mph3.7 kmh 29.66 in1004.4 mb - 0.00 in0.0 mm 0.00 in0.0 mm
05:30 AM 44.4°F6.9°C 39.5°F4.2°C 83% Calm Calm 2.3 mph3.7 kmh 29.66 in1004.4 mb - 0.00 in0.0 mm 0.00 in0.0 mm
05:40 AM 44.6°F7.0°C 39.8°F4.3°C 83% Calm Calm 4.6 mph7.4 kmh 29.65 in1004.1 mb - 0.00 in0.0 mm 0.00 in0.0 mm
05:50 AM 44.2°F6.8°C 39.4°F4.1°C 83% 2.3 mph WNW3.7 kmh WNW 5.8 mph9.3 kmh 29.66 in1004.4 mb - 0.00 in0.0 mm 0.00 in0.0 mm
06:00 AM 44.1°F6.7°C 39.2°F4.0°C 83% 1.2 mph WNW1.9 kmh WNW 4.6 mph7.4 kmh 29.67 in1004.7 mb - 0.00 in0.0 mm 0.00 in0.0 mm
06:10 AM 43.1°F6.2°C 38.3°F3.5°C 83% Calm Calm -- 29.68 in1005.1 mb - 0.00 in0.0 mm 0.00 in0.0 mm
06:20 AM 42.2°F5.7°C 37.7°F3.2°C 84% Calm Calm -- 29.68 in1005.1 mb - 0.00 in0.0 mm 0.00 in0.0 mm
06:30 AM 42.2°F5.7°C 38.0°F3.3°C 85% Calm Calm -- 29.69 in1005.4 mb - 0.00 in0.0 mm 0.00 in0.0 mm
06:40 AM 42.4°F5.8°C 38.2°F3.4°C 85% Calm Calm -- 29.68 in1005.1 mb - 0.00 in0.0 mm 0.00 in0.0 mm
06:50 AM 42.9°F6.1°C 38.7°F3.7°C 85% 1.2 mph WNW1.9 kmh WNW 2.3 mph3.7 kmh 29.68 in1005.1 mb - 0.00 in0.0 mm 0.00 in0.0 mm
07:00 AM 43.0°F6.1°C 38.8°F3.8°C 85% 4.6 mph W7.4 kmh W 5.8 mph9.3 kmh 29.70 in1005.8 mb - 0.00 in0.0 mm 0.00 in0.0 mm
07:10 AM 43.0°F6.1°C 38.8°F3.8°C 85% Calm Calm 2.3 mph3.7 kmh 29.71 in1006.1 mb - 0.00 in0.0 mm 0.00 in0.0 mm
07:20 AM 43.0°F6.1°C 38.8°F3.8°C 85% Calm Calm -- 29.70 in1005.8 mb - 0.00 in0.0 mm 0.00 in0.0 mm
07:30 AM 42.9°F6.1°C 38.7°F3.7°C 85% 2.3 mph ESE3.7 kmh ESE 2.3 mph3.7 kmh 29.69 in1005.4 mb - 0.00 in0.0 mm 0.00 in0.0 mm
07:40 AM 42.3°F5.7°C 38.4°F3.6°C 86% Calm Calm 1.2 mph1.9 kmh 29.69 in1005.4 mb - 0.00 in0.0 mm 0.00 in0.0 mm
07:50 AM 42.2°F5.7°C 38.3°F3.5°C 86% Calm Calm -- 29.70 in1005.8 mb - 0.00 in0.0 mm 0.00 in0.0 mm
08:00 AM 42.4°F5.8°C 38.8°F3.8°C 87% Calm Calm -- 29.70 in1005.8 mb - 0.00 in0.0 mm 0.00 in0.0 mm
08:10 AM 42.7°F5.9°C 39.1°F3.9°C 87% Calm Calm -- 29.70 in1005.8 mb - 0.00 in0.0 mm 0.00 in0.0 mm
08:20 AM 43.1°F6.2°C 39.5°F4.2°C 87% Calm Calm -- 29.70 in1005.8 mb - 0.00 in0.0 mm 0.00 in0.0 mm
08:30 AM 43.3°F6.3°C 39.6°F4.2°C 87% 1.2 mph E1.9 kmh E 4.6 mph7.4 kmh 29.70 in1005.8 mb - 0.00 in0.0 mm 0.00 in0.0 mm
08:40 AM 43.5°F6.4°C 39.9°F4.4°C 87% Calm Calm -- 29.70 in1005.8 mb - 0.00 in0.0 mm 0.00 in0.0 mm
08:50 AM 43.9°F6.6°C 40.3°F4.6°C 87% Calm Calm 1.2 mph1.9 kmh 29.69 in1005.4 mb - 0.00 in0.0 mm 0.00 in0.0 mm
09:00 AM 44.2°F6.8°C 40.6°F4.8°C 87% 2.3 mph E3.7 kmh E 4.6 mph7.4 kmh 29.68 in1005.1 mb - 0.00 in0.0 mm 0.00 in0.0 mm
09:10 AM 44.7°F7.1°C 41.1°F5.1°C 87% 2.3 mph E3.7 kmh E 4.6 mph7.4 kmh 29.68 in1005.1 mb - 0.00 in0.0 mm 0.00 in0.0 mm
09:20 AM 45.3°F7.4°C 41.7°F5.4°C 87% Calm Calm -- 29.69 in1005.4 mb - 0.00 in0.0 mm 0.00 in0.0 mm
09:30 AM 46.0°F7.8°C 42.0°F5.6°C 86% Calm Calm -- 29.69 in1005.4 mb - 0.00 in0.0 mm 0.00 in0.0 mm
09:40 AM 46.7°F8.2°C 42.4°F5.8°C 85% 3.5 mph S5.6 kmh S 5.8 mph9.3 kmh 29.69 in1005.4 mb - 0.00 in0.0 mm 0.00 in0.0 mm
09:50 AM 47.2°F8.4°C 42.7°F5.9°C 84% 2.3 mph SW3.7 kmh SW 4.6 mph7.4 kmh 29.68 in1005.1 mb - 0.00 in0.0 mm 0.00 in0.0 mm
10:00 AM 47.9°F8.8°C 43.0°F6.1°C 83% 2.3 mph S3.7 kmh S 5.8 mph9.3 kmh 29.68 in1005.1 mb - 0.00 in0.0 mm 0.00 in0.0 mm
10:10 AM 48.6°F9.2°C 43.3°F6.3°C 82% 2.3 mph SSE3.7 kmh SSE 4.6 mph7.4 kmh 29.68 in1005.1 mb - 0.00 in0.0 mm 0.00 in0.0 mm
10:20 AM 49.2°F9.6°C 43.9°F6.6°C 82% 2.3 mph E3.7 kmh E 5.8 mph9.3 kmh 29.68 in1005.1 mb - 0.00 in0.0 mm 0.00 in0.0 mm
10:30 AM 49.5°F9.7°C 44.6°F7.0°C 83% 2.3 mph SE3.7 kmh SE 5.8 mph9.3 kmh 29.67 in1004.7 mb - 0.00 in0.0 mm 0.00 in0.0 mm
10:40 AM 50.0°F10.0°C 44.7°F7.1°C 82% 5.8 mph SE9.3 kmh SE 8.1 mph13.0 kmh 29.67 in1004.7 mb - 0.00 in0.0 mm 0.00 in0.0 mm
10:50 AM 50.4°F10.2°C 45.1°F7.3°C 82% 2.3 mph SSE3.7 kmh SSE 5.8 mph9.3 kmh 29.67 in1004.7 mb - 0.00 in0.0 mm 0.00 in0.0 mm
11:00 AM 50.7°F10.4°C 44.8°F7.1°C 80% 4.6 mph SE7.4 kmh SE 8.1 mph13.0 kmh 29.67 in1004.7 mb - 0.00 in0.0 mm 0.00 in0.0 mm
11:10 AM 51.1°F10.6°C 45.1°F7.3°C 80% 6.9 mph S11.1 kmh S 11.5 mph18.5 kmh 29.66 in1004.4 mb - 0.00 in0.0 mm 0.00 in0.0 mm
11:20 AM 51.5°F10.8°C 44.9°F7.2°C 78% 5.8 mph S9.3 kmh S 9.2 mph14.8 kmh 29.66 in1004.4 mb - 0.00 in0.0 mm 0.00 in0.0 mm
11:30 AM 51.7°F10.9°C 44.0°F6.7°C 75% 9.2 mph S14.8 kmh S 13.8 mph22.2 kmh 29.65 in1004.1 mb - 0.00 in0.0 mm 0.00 in0.0 mm
11:40 AM 51.9°F11.1°C 43.9°F6.6°C 74% 6.9 mph S11.1 kmh S 11.5 mph18.5 kmh 29.64 in1003.7 mb - 0.00 in0.0 mm 0.00 in0.0 mm
11:50 AM 52.0°F11.1°C 43.2°F6.2°C 72% 9.2 mph S14.8 kmh S 12.7 mph20.4 kmh 29.63 in1003.4 mb - 0.00 in0.0 mm 0.00 in0.0 mm
12:10 PM 52.1°F11.2°C 43.7°F6.5°C 73% 10.4 mph S16.7 kmh S 15.0 mph24.1 kmh 29.62 in1003.0 mb - 0.00 in0.0 mm 0.00 in0.0 mm
12:20 PM 52.5°F11.4°C 44.1°F6.7°C 73% 11.5 mph S18.5 kmh S 20.7 mph33.3 kmh 29.62 in1003.0 mb - 0.00 in0.0 mm 0.00 in0.0 mm
12:30 PM 52.7°F11.5°C 45.0°F7.2°C 75% 11.5 mph S18.5 kmh S 13.8 mph22.2 kmh 29.61 in1002.7 mb - 0.00 in0.0 mm 0.00 in0.0 mm
12:40 PM 52.9°F11.6°C 45.9°F7.7°C 77% 11.5 mph S18.5 kmh S 18.4 mph29.6 kmh 29.60 in1002.4 mb - 0.00 in0.0 mm 0.00 in0.0 mm
12:50 PM 53.2°F11.8°C 46.5°F8.1°C 78% 11.5 mph SSE18.5 kmh SSE 16.1 mph25.9 kmh 29.59 in1002.0 mb - 0.00 in0.0 mm 0.00 in0.0 mm
01:00 PM 53.5°F11.9°C 46.8°F8.2°C 78% 13.8 mph SSW22.2 kmh SSW 21.9 mph35.2 kmh 29.58 in1001.7 mb - 0.00 in0.0 mm 0.00 in0.0 mm
01:10 PM 54.0°F12.2°C 47.3°F8.5°C 78% 13.8 mph S22.2 kmh S 19.6 mph31.5 kmh 29.57 in1001.4 mb - 0.00 in0.0 mm 0.00 in0.0 mm
01:20 PM 54.3°F12.4°C 47.9°F8.8°C 79% 12.7 mph S20.4 kmh S 19.6 mph31.5 kmh 29.56 in1001.0 mb - 0.00 in0.0 mm 0.00 in0.0 mm
01:30 PM 54.5°F12.5°C 48.5°F9.2°C 80% 19.6 mph S31.5 kmh S 27.6 mph44.4 kmh 29.54 in1000.3 mb - 0.00 in0.0 mm 0.00 in0.0 mm
01:40 PM 54.7°F12.6°C 49.0°F9.4°C 81% 16.1 mph SSE25.9 kmh SSE 21.9 mph35.2 kmh 29.54 in1000.3 mb - 0.00 in0.0 mm 0.00 in0.0 mm
01:50 PM 54.7°F12.6°C 49.0°F9.4°C 81% 16.1 mph S25.9 kmh S 21.9 mph35.2 kmh 29.54 in1000.3 mb - 0.00 in0.0 mm 0.00 in0.0 mm
02:00 PM 54.8°F12.7°C 49.1°F9.5°C 81% 18.4 mph S29.6 kmh S 21.9 mph35.2 kmh 29.54 in1000.3 mb - 0.00 in0.0 mm 0.00 in0.0 mm
02:10 PM 54.9°F12.7°C 49.5°F9.7°C 82% 16.1 mph S25.9 kmh S 21.9 mph35.2 kmh 29.52 in999.7 mb - 0.00 in0.0 mm 0.00 in0.0 mm
02:20 PM 54.7°F12.6°C 49.7°F9.8°C 83% 15.0 mph S24.1 kmh S 19.6 mph31.5 kmh 29.52 in999.7 mb - 0.01 in0.3 mm 0.01 in0.3 mm
02:30 PM 54.0°F12.2°C 49.6°F9.8°C 85% 18.4 mph SSE29.6 kmh SSE 25.3 mph40.7 kmh 29.50 in999.0 mb - 0.01 in0.3 mm 0.02 in0.5 mm
02:40 PM 53.9°F12.2°C 49.8°F9.9°C 86% 11.5 mph S18.5 kmh S 18.4 mph29.6 kmh 29.49 in998.6 mb - 0.01 in0.3 mm 0.03 in0.8 mm
02:50 PM 53.9°F12.2°C 49.8°F9.9°C 86% 19.6 mph SSE31.5 kmh SSE 27.6 mph44.4 kmh 29.48 in998.3 mb - 0.01 in0.3 mm 0.04 in1.0 mm
03:00 PM 54.0°F12.2°C 49.9°F9.9°C 86% 21.9 mph SE35.2 kmh SE 28.8 mph46.3 kmh 29.47 in998.0 mb - 0.01 in0.3 mm 0.05 in1.3 mm
03:10 PM 54.1°F12.3°C 50.3°F10.2°C 87% 16.1 mph SSE25.9 kmh SSE 23.0 mph37.0 kmh 29.46 in997.6 mb - 0.01 in0.3 mm 0.05 in1.3 mm
03:20 PM 54.2°F12.3°C 50.4°F10.2°C 87% 20.7 mph SSE33.3 kmh SSE 27.6 mph44.4 kmh 29.45 in997.3 mb - 0.04 in1.0 mm 0.09 in2.3 mm
03:30 PM 54.3°F12.4°C 50.5°F10.3°C 87% 16.1 mph SSE25.9 kmh SSE 23.0 mph37.0 kmh 29.44 in997.0 mb - 0.05 in1.3 mm 0.13 in3.3 mm
03:40 PM 53.9°F12.2°C 50.4°F10.2°C 88% 20.7 mph SSE33.3 kmh SSE 27.6 mph44.4 kmh 29.43 in996.6 mb - 0.05 in1.3 mm 0.17 in4.3 mm
03:50 PM 53.9°F12.2°C 50.4°F10.2°C 88% 21.9 mph S35.2 kmh S 28.8 mph46.3 kmh 29.42 in996.3 mb - 0.02 in0.5 mm 0.19 in4.8 mm
04:00 PM 54.1°F12.3°C 50.9°F10.5°C 89% 21.9 mph S35.2 kmh S 32.2 mph51.8 kmh 29.40 in995.6 mb - 0.04 in1.0 mm 0.22 in5.6 mm
04:10 PM 54.4°F12.4°C 51.2°F10.7°C 89% 17.3 mph S27.8 kmh S 21.9 mph35.2 kmh 29.39 in995.3 mb - 0.06 in1.5 mm 0.28 in7.1 mm
04:20 PM 54.7°F12.6°C 51.5°F10.8°C 89% 20.7 mph S33.3 kmh S 29.9 mph48.1 kmh 29.38 in994.9 mb - 0.04 in1.0 mm 0.32 in8.1 mm
04:30 PM 54.9°F12.7°C 51.7°F10.9°C 89% 21.9 mph S35.2 kmh S 28.8 mph46.3 kmh 29.37 in994.6 mb - 0.03 in0.8 mm 0.35 in8.9 mm
04:40 PM 55.1°F12.8°C 52.0°F11.1°C 89% 21.9 mph S35.2 kmh S 29.9 mph48.1 kmh 29.37 in994.6 mb - 0.04 in1.0 mm 0.38 in9.7 mm
04:50 PM 55.4°F13.0°C 52.2°F11.2°C 89% 23.0 mph SSE37.0 kmh SSE 33.4 mph53.8 kmh 29.36 in994.2 mb - 0.05 in1.3 mm 0.42 in10.7 mm
05:00 PM 55.7°F13.2°C 52.5°F11.4°C 89% 16.1 mph S25.9 kmh S 21.9 mph35.2 kmh 29.35 in993.9 mb - 0.03 in0.8 mm 0.44 in11.2 mm
05:10 PM 55.9°F13.3°C 53.0°F11.7°C 90% 19.6 mph S31.5 kmh S 26.5 mph42.6 kmh 29.34 in993.6 mb - 0.02 in0.5 mm 0.46 in11.7 mm
05:20 PM 56.1°F13.4°C 53.2°F11.8°C 90% 16.1 mph S25.9 kmh S 25.3 mph40.7 kmh 29.34 in993.6 mb - 0.04 in1.0 mm 0.50 in12.7 mm
05:30 PM 56.2°F13.4°C 53.3°F11.8°C 90% 19.6 mph S31.5 kmh S 27.6 mph44.4 kmh 29.33 in993.2 mb - 0.03 in0.8 mm 0.53 in13.5 mm
05:40 PM 56.3°F13.5°C 53.4°F11.9°C 90% 16.1 mph SW25.9 kmh SW 23.0 mph37.0 kmh 29.33 in993.2 mb - 0.02 in0.5 mm 0.55 in14.0 mm
05:50 PM 55.0°F12.8°C 52.1°F11.2°C 90% 8.1 mph W13.0 kmh W 12.7 mph20.4 kmh 29.34 in993.6 mb - 0.01 in0.3 mm 0.56 in14.2 mm
06:00 PM 54.5°F12.5°C 51.6°F10.9°C 90% 9.2 mph WSW14.8 kmh WSW 13.8 mph22.2 kmh 29.33 in993.2 mb - 0.00 in0.0 mm 0.56 in14.2 mm
06:10 PM 54.3°F12.4°C 51.4°F10.8°C 90% 8.1 mph SSW13.0 kmh SSW 11.5 mph18.5 kmh 29.33 in993.2 mb - 0.00 in0.0 mm 0.56 in14.2 mm
06:20 PM 53.9°F12.2°C 51.1°F10.6°C 90% 5.8 mph WSW9.3 kmh WSW 9.2 mph14.8 kmh 29.33 in993.2 mb - 0.00 in0.0 mm 0.56 in14.2 mm
06:30 PM 53.4°F11.9°C 50.5°F10.3°C 90% 8.1 mph WSW13.0 kmh WSW 13.8 mph22.2 kmh 29.33 in993.2 mb - 0.00 in0.0 mm 0.56 in14.2 mm
06:40 PM 53.3°F11.8°C 50.4°F10.2°C 90% 8.1 mph SW13.0 kmh SW 11.5 mph18.5 kmh 29.32 in992.9 mb - 0.00 in0.0 mm 0.56 in14.2 mm
06:50 PM 53.3°F11.8°C 50.4°F10.2°C 90% 10.4 mph SW16.7 kmh SW 15.0 mph24.1 kmh 29.32 in992.9 mb - 0.00 in0.0 mm 0.56 in14.2 mm
07:00 PM 52.8°F11.6°C 49.9°F9.9°C 90% 11.5 mph SW18.5 kmh SW 18.4 mph29.6 kmh 29.32 in992.9 mb - 0.00 in0.0 mm 0.56 in14.2 mm
07:10 PM 52.6°F11.4°C 49.8°F9.9°C 90% 10.4 mph WSW16.7 kmh WSW 19.6 mph31.5 kmh 29.31 in992.6 mb - 0.00 in0.0 mm 0.56 in14.2 mm
07:20 PM 52.9°F11.6°C 50.0°F10.0°C 90% 11.5 mph SW18.5 kmh SW 16.1 mph25.9 kmh 29.31 in992.6 mb - 0.00 in0.0 mm 0.56 in14.2 mm
07:30 PM 53.2°F11.8°C 50.3°F10.2°C 90% 11.5 mph SW18.5 kmh SW 16.1 mph25.9 kmh 29.31 in992.6 mb - 0.00 in0.0 mm 0.56 in14.2 mm
07:40 PM 53.5°F11.9°C 50.6°F10.3°C 90% 12.7 mph SW20.4 kmh SW 19.6 mph31.5 kmh 29.31 in992.6 mb - 0.00 in0.0 mm 0.56 in14.2 mm
07:50 PM 54.0°F12.2°C 51.1°F10.6°C 90% 11.5 mph SW18.5 kmh SW 16.1 mph25.9 kmh 29.30 in992.2 mb - 0.00 in0.0 mm 0.56 in14.2 mm
08:00 PM 54.3°F12.4°C 51.4°F10.8°C 90% 13.8 mph SW22.2 kmh SW 25.3 mph40.7 kmh 29.30 in992.2 mb - 0.00 in0.0 mm 0.56 in14.2 mm
08:10 PM 55.0°F12.8°C 52.1°F11.2°C 90% 16.1 mph SW25.9 kmh SW 25.3 mph40.7 kmh 29.30 in992.2 mb - 0.00 in0.0 mm 0.56 in14.2 mm
08:20 PM 55.3°F12.9°C 52.4°F11.3°C 90% 12.7 mph SW20.4 kmh SW 18.4 mph29.6 kmh 29.30 in992.2 mb - 0.00 in0.0 mm 0.56 in14.2 mm
08:30 PM 55.5°F13.1°C 52.6°F11.4°C 90% 12.7 mph SW20.4 kmh SW 21.9 mph35.2 kmh 29.29 in991.9 mb - 0.00 in0.0 mm 0.56 in14.2 mm
08:40 PM 55.7°F13.2°C 52.8°F11.6°C 90% 13.8 mph SW22.2 kmh SW 19.6 mph31.5 kmh 29.29 in991.9 mb - 0.00 in0.0 mm 0.56 in14.2 mm
08:50 PM 55.6°F13.1°C 52.4°F11.3°C 89% 11.5 mph SW18.5 kmh SW 19.6 mph31.5 kmh 29.29 in991.9 mb - 0.00 in0.0 mm 0.56 in14.2 mm
09:00 PM 55.7°F13.2°C 52.5°F11.4°C 89% 9.2 mph SW14.8 kmh SW 12.7 mph20.4 kmh 29.29 in991.9 mb - 0.00 in0.0 mm 0.56 in14.2 mm
09:10 PM 55.7°F13.2°C 52.2°F11.2°C 88% 11.5 mph SW18.5 kmh SW 18.4 mph29.6 kmh 29.28 in991.5 mb - 0.00 in0.0 mm 0.56 in14.2 mm
09:20 PM 55.7°F13.2°C 51.9°F11.1°C 87% 9.2 mph SW14.8 kmh SW 16.1 mph25.9 kmh 29.28 in991.5 mb - 0.00 in0.0 mm 0.56 in14.2 mm
09:30 PM 55.5°F13.1°C 51.4°F10.8°C 86% 8.1 mph SW13.0 kmh SW 13.8 mph22.2 kmh 29.27 in991.2 mb - 0.00 in0.0 mm 0.56 in14.2 mm
09:40 PM 55.7°F13.2°C 51.3°F10.7°C 85% 19.6 mph SW31.5 kmh SW 27.6 mph44.4 kmh 29.27 in991.2 mb - 0.00 in0.0 mm 0.56 in14.2 mm
09:50 PM 56.0°F13.3°C 51.2°F10.7°C 84% 13.8 mph WSW22.2 kmh WSW 19.6 mph31.5 kmh 29.27 in991.2 mb - 0.00 in0.0 mm 0.56 in14.2 mm
10:00 PM 55.8°F13.2°C 50.7°F10.4°C 83% 13.8 mph SW22.2 kmh SW 21.9 mph35.2 kmh 29.26 in990.9 mb - 0.00 in0.0 mm 0.56 in14.2 mm
10:10 PM 55.7°F13.2°C 50.3°F10.2°C 82% 15.0 mph SW24.1 kmh SW 23.0 mph37.0 kmh 29.25 in990.5 mb - 0.00 in0.0 mm 0.56 in14.2 mm
10:20 PM 55.5°F13.1°C 50.1°F10.1°C 82% 16.1 mph SW25.9 kmh SW 25.3 mph40.7 kmh 29.25 in990.5 mb - 0.00 in0.0 mm 0.56 in14.2 mm
10:30 PM 55.3°F12.9°C 49.9°F9.9°C 82% 15.0 mph WSW24.1 kmh WSW 26.5 mph42.6 kmh 29.25 in990.5 mb - 0.00 in0.0 mm 0.56 in14.2 mm
10:40 PM 55.6°F13.1°C 50.1°F10.1°C 82% 18.4 mph SW29.6 kmh SW 25.3 mph40.7 kmh 29.24 in990.2 mb - 0.00 in0.0 mm 0.56 in14.2 mm
10:50 PM 55.7°F13.2°C 50.0°F10.0°C 81% 18.4 mph SW29.6 kmh SW 27.6 mph44.4 kmh 29.24 in990.2 mb - 0.00 in0.0 mm 0.56 in14.2 mm
11:00 PM 55.8°F13.2°C 49.7°F9.8°C 80% 16.1 mph WSW25.9 kmh WSW 21.9 mph35.2 kmh 29.24 in990.2 mb - 0.00 in0.0 mm 0.63 in16.0 mm
11:10 PM 55.8°F13.2°C 49.7°F9.8°C 80% 17.3 mph WSW27.8 kmh WSW 25.3 mph40.7 kmh 29.23 in989.8 mb - 0.00 in0.0 mm 0.63 in16.0 mm
11:20 PM 55.8°F13.2°C 49.3°F9.6°C 79% 18.4 mph SW29.6 kmh SW 27.6 mph44.4 kmh 29.23 in989.8 mb - 0.00 in0.0 mm 0.63 in16.0 mm
11:30 PM 55.0°F12.8°C 48.9°F9.4°C 80% 15.0 mph WNW24.1 kmh WNW 26.5 mph42.6 kmh 29.22 in989.5 mb - 0.00 in0.0 mm 0.63 in16.0 mm
11:40 PM 54.5°F12.5°C 49.4°F9.7°C 83% 18.4 mph SW29.6 kmh SW 27.6 mph44.4 kmh 29.21 in989.2 mb - 0.00 in0.0 mm 0.63 in16.0 mm
11:50 PM 55.2°F12.9°C 49.8°F9.9°C 82% 13.8 mph SW22.2 kmh SW 21.9 mph35.2 kmh 29.20 in988.8 mb - 0.00 in0.0 mm 0.63 in16.0 mm